createdAt,value
2018-01-01T00:01:00.242Z,98602
2018-01-01T00:03:30.364Z,98575
2018-01-01T00:06:00.250Z,98569
2018-01-01T00:08:30.231Z,98561
2018-01-01T00:11:00.201Z,98570
2018-01-01T00:13:30.132Z,98570
2018-01-01T00:16:00.024Z,98568
2018-01-01T00:18:29.980Z,98569
2018-01-01T00:20:59.938Z,98565
2018-01-01T00:23:29.868Z,98578
2018-01-01T00:25:59.906Z,98578
2018-01-01T00:28:29.925Z,98578
2018-01-01T00:30:59.924Z,98611
2018-01-01T00:33:29.853Z,98590
2018-01-01T00:35:59.766Z,98580
2018-01-01T00:38:29.659Z,98561
2018-01-01T00:40:59.572Z,98571
2018-01-01T00:43:29.541Z,98577
2018-01-01T00:45:59.468Z,98419
2018-01-01T00:48:29.454Z,98556
2018-01-01T00:50:59.353Z,98448
2018-01-01T00:53:29.299Z,98559
2018-01-01T00:55:59.184Z,98573
2018-01-01T00:58:29.166Z,98561
2018-01-01T01:00:59.066Z,98563
2018-01-01T01:03:29.012Z,98591
2018-01-01T01:05:58.901Z,98577
2018-01-01T01:08:28.820Z,98580
2018-01-01T01:10:58.733Z,98581
2018-01-01T01:13:28.608Z,98586
2018-01-01T01:15:58.489Z,98587
2018-01-01T01:18:28.377Z,98594
2018-01-01T01:20:58.276Z,98583
2018-01-01T01:23:28.175Z,98593
2018-01-01T01:25:58.067Z,98594
2018-01-01T01:28:27.950Z,98594
2018-01-01T01:30:57.868Z,98595
2018-01-01T01:33:27.832Z,98625
2018-01-01T01:35:57.744Z,98602
2018-01-01T01:38:27.653Z,98609
2018-01-01T01:40:57.557Z,98619
2018-01-01T01:43:27.478Z,98617
2018-01-01T01:45:57.362Z,98623
2018-01-01T01:48:33.049Z,98638
2018-01-01T01:51:02.945Z,98640
2018-01-01T01:53:32.846Z,98640
2018-01-01T01:56:02.780Z,98646
2018-01-01T01:58:32.664Z,98650
2018-01-01T02:01:02.580Z,98660
2018-01-01T02:03:32.565Z,98663
2018-01-01T02:06:02.554Z,98664
2018-01-01T02:08:32.617Z,98668
2018-01-01T02:11:02.515Z,98677
2018-01-01T02:13:32.400Z,98662
2018-01-01T02:16:02.385Z,98653
2018-01-01T02:18:32.284Z,98659
2018-01-01T02:21:02.199Z,98656
2018-01-01T02:23:32.108Z,98650
2018-01-01T02:26:02.009Z,98648
2018-01-01T02:28:31.951Z,98642
2018-01-01T02:31:01.958Z,98645
2018-01-01T02:33:31.863Z,98630
2018-01-01T02:36:01.752Z,98630
2018-01-01T02:38:31.634Z,98629
2018-01-01T02:41:01.518Z,98625
2018-01-01T02:43:31.413Z,98608
2018-01-01T02:46:01.305Z,98618
2018-01-01T02:48:31.217Z,98623
2018-01-01T02:51:01.149Z,98620
2018-01-01T02:53:31.074Z,98611
2018-01-01T02:56:00.966Z,98608
2018-01-01T02:58:30.924Z,98613
2018-01-01T03:01:00.838Z,98618
2018-01-01T03:03:30.780Z,98615
2018-01-01T03:06:00.713Z,98615
2018-01-01T03:08:30.640Z,98618
2018-01-01T03:11:00.538Z,98627
2018-01-01T03:13:30.454Z,98621
2018-01-01T03:16:00.400Z,98611
2018-01-01T03:18:30.259Z,98618
2018-01-01T03:21:00.165Z,98620
2018-01-01T03:23:30.040Z,98612
2018-01-01T03:25:59.970Z,98617
2018-01-01T03:28:29.858Z,98614
2018-01-01T03:30:59.782Z,98621
2018-01-01T03:33:29.657Z,98604
2018-01-01T03:35:59.551Z,98618
2018-01-01T03:38:29.440Z,98618
2018-01-01T03:40:59.387Z,98608
2018-01-01T03:43:29.335Z,98601
2018-01-01T03:45:59.211Z,98604
2018-01-01T03:48:29.237Z,98604
2018-01-01T03:50:59.135Z,98604
2018-01-01T03:53:29.020Z,98600
2018-01-01T03:55:58.912Z,98592
2018-01-01T03:58:29.088Z,98599
2018-01-01T04:00:58.968Z,98588
2018-01-01T04:03:28.880Z,98597
2018-01-01T04:05:58.769Z,98586
2018-01-01T04:08:28.810Z,98589
2018-01-01T04:10:58.699Z,98588
2018-01-01T04:13:28.618Z,98589
2018-01-01T04:15:58.493Z,98572
2018-01-01T04:18:28.366Z,98597
2018-01-01T04:20:58.292Z,98596
2018-01-01T04:23:28.236Z,98591
2018-01-01T04:25:58.136Z,98597
2018-01-01T04:28:28.001Z,98593
2018-01-01T04:30:57.926Z,98581
2018-01-01T04:33:27.797Z,98575
2018-01-01T04:35:57.703Z,98579
2018-01-01T04:38:27.584Z,98601
2018-01-01T04:40:57.495Z,98595
2018-01-01T04:43:27.404Z,98591
2018-01-01T04:45:57.280Z,98592
2018-01-01T04:48:27.191Z,98585
2018-01-01T04:50:57.058Z,98579
2018-01-01T04:53:26.979Z,98578
2018-01-01T04:55:56.844Z,98581
2018-01-01T04:58:26.762Z,98574
2018-01-01T05:00:56.638Z,98563
2018-01-01T05:03:26.537Z,98565
2018-01-01T05:05:56.454Z,98559
2018-01-01T05:08:26.317Z,98561
2018-01-01T05:10:56.335Z,98562
2018-01-01T05:13:26.377Z,98572
2018-01-01T05:15:56.258Z,98569
2018-01-01T05:18:26.144Z,98575
2018-01-01T05:20:56.068Z,98569
2018-01-01T05:23:25.963Z,98571
2018-01-01T05:25:55.857Z,98544
2018-01-01T05:28:25.731Z,98554
2018-01-01T05:30:55.608Z,98560
2018-01-01T05:33:25.515Z,98575
2018-01-01T05:35:55.385Z,98589
2018-01-01T05:38:25.291Z,98597
2018-01-01T05:40:55.179Z,98581
2018-01-01T05:43:25.090Z,98580
2018-01-01T05:45:54.989Z,98574
2018-01-01T05:48:25.024Z,98574
2018-01-01T05:50:54.897Z,98575
2018-01-01T05:53:24.817Z,98585
2018-01-01T05:55:54.815Z,98579
2018-01-01T05:58:24.686Z,98595
2018-01-01T06:00:54.615Z,98567
2018-01-01T06:03:24.499Z,98586
2018-01-01T06:05:54.385Z,98596
2018-01-01T06:08:24.260Z,98579
2018-01-01T06:10:54.171Z,98596
2018-01-01T06:13:24.091Z,98585
2018-01-01T06:15:54.005Z,98610
2018-01-01T06:18:23.892Z,98604
2018-01-01T06:20:53.820Z,98626
2018-01-01T06:23:23.978Z,98634
2018-01-01T06:25:53.848Z,98639
2018-01-01T06:28:23.769Z,98630
2018-01-01T06:30:53.643Z,98649
2018-01-01T06:33:23.569Z,98645
2018-01-01T06:35:53.438Z,98643
2018-01-01T06:38:23.332Z,98633
2018-01-01T06:40:53.228Z,98634
2018-01-01T06:43:23.137Z,98638
2018-01-01T06:45:53.117Z,98637
2018-01-01T06:48:23.028Z,98647
2018-01-01T06:50:52.908Z,98661
2018-01-01T06:53:22.924Z,98655
2018-01-01T06:55:52.796Z,98664
2018-01-01T06:58:22.743Z,98677
2018-01-01T07:00:52.608Z,98686
2018-01-01T07:03:22.513Z,98700
2018-01-01T07:05:53.147Z,98704
2018-01-01T07:08:23.042Z,98719
2018-01-01T07:10:52.937Z,98731
2018-01-01T07:13:22.820Z,98752
2018-01-01T07:15:52.719Z,98741
2018-01-01T07:18:22.591Z,98752
2018-01-01T07:20:52.457Z,98764
2018-01-01T07:23:22.351Z,98765
2018-01-01T07:25:52.212Z,98775
2018-01-01T07:28:22.091Z,98782
2018-01-01T07:30:51.969Z,98795
2018-01-01T07:33:21.984Z,98794
2018-01-01T07:35:51.890Z,98801
2018-01-01T07:38:21.769Z,98798
2018-01-01T07:40:51.648Z,98805
2018-01-01T07:43:22.035Z,98814
2018-01-01T07:45:51.970Z,98815
2018-01-01T07:48:21.825Z,98832
2018-01-01T07:50:51.854Z,98834
2018-01-01T07:53:21.730Z,98839
2018-01-01T07:55:51.663Z,98836
2018-01-01T07:58:21.532Z,98832
2018-01-01T08:00:51.392Z,98843
2018-01-01T08:03:21.285Z,98849
2018-01-01T08:05:51.167Z,98850
2018-01-01T08:08:21.163Z,98849
2018-01-01T08:10:51.031Z,98848
2018-01-01T08:13:20.964Z,98854
2018-01-01T08:15:50.829Z,98857
2018-01-01T08:18:20.707Z,98870
2018-01-01T08:20:50.571Z,98865
2018-01-01T08:23:20.430Z,98876
2018-01-01T08:25:50.339Z,98870
2018-01-01T08:28:20.278Z,98887
2018-01-01T08:30:50.180Z,98888
2018-01-01T08:33:20.054Z,98900
2018-01-01T08:35:50.020Z,98897
2018-01-01T08:38:19.912Z,98908
2018-01-01T08:40:49.799Z,98909
2018-01-01T08:43:19.686Z,98912
2018-01-01T08:45:49.597Z,98917
2018-01-01T08:48:19.513Z,98920
2018-01-01T08:50:49.413Z,98924
2018-01-01T08:53:19.316Z,98927
2018-01-01T08:55:49.212Z,98940
2018-01-01T08:58:19.155Z,98952
2018-01-01T09:00:49.081Z,98955
2018-01-01T09:03:18.979Z,98957
2018-01-01T09:05:48.872Z,98970
2018-01-01T09:08:18.837Z,98970
2018-01-01T09:10:48.689Z,98965
2018-01-01T09:13:18.588Z,98980
2018-01-01T09:15:48.477Z,98992
2018-01-01T09:18:18.373Z,98984
2018-01-01T09:20:48.290Z,98986
2018-01-01T09:23:18.222Z,98989
2018-01-01T09:25:48.105Z,98981
2018-01-01T09:28:18.039Z,98994
2018-01-01T09:30:47.936Z,98999
2018-01-01T09:33:17.804Z,99005
2018-01-01T09:35:47.733Z,98998
2018-01-01T09:38:17.622Z,99013
2018-01-01T09:40:47.516Z,99021
2018-01-01T09:43:17.440Z,99021
2018-01-01T09:45:47.347Z,99025
2018-01-01T09:48:17.265Z,99036
2018-01-01T09:50:47.175Z,99041
2018-01-01T09:53:17.094Z,99033
2018-01-01T09:55:46.972Z,98917
2018-01-01T09:58:16.912Z,99054
2018-01-01T10:00:46.800Z,99056
2018-01-01T10:03:16.863Z,99049
2018-01-01T10:05:46.741Z,99051
2018-01-01T10:08:16.964Z,99057
2018-01-01T10:10:46.808Z,99049
2018-01-01T10:13:16.745Z,99049
2018-01-01T10:15:46.650Z,99053
2018-01-01T10:18:16.552Z,99055
2018-01-01T10:20:46.546Z,99047
2018-01-01T10:23:16.563Z,99057
2018-01-01T10:25:46.499Z,99055
2018-01-01T10:28:16.385Z,99056
2018-01-01T10:30:46.307Z,99056
2018-01-01T10:33:16.342Z,99053
2018-01-01T10:35:46.372Z,99056
2018-01-01T10:38:16.266Z,99049
2018-01-01T10:40:46.204Z,99064
2018-01-01T10:43:16.296Z,99054
2018-01-01T10:45:46.252Z,99053
2018-01-01T10:48:16.143Z,99054
2018-01-01T10:50:46.030Z,99047
2018-01-01T10:53:15.984Z,99044
2018-01-01T10:55:45.891Z,99051
2018-01-01T10:58:15.792Z,99044
2018-01-01T11:00:45.733Z,99037
2018-01-01T11:03:15.607Z,99047
2018-01-01T11:05:45.553Z,99042
2018-01-01T11:08:15.457Z,99042
2018-01-01T11:10:45.378Z,99041
2018-01-01T11:13:15.298Z,99038
2018-01-01T11:15:45.182Z,99039
2018-01-01T11:18:15.061Z,99042
2018-01-01T11:20:44.964Z,99072
2018-01-01T11:23:15.008Z,99043
2018-01-01T11:25:44.963Z,99035
2018-01-01T11:28:14.883Z,99036
2018-01-01T11:30:44.863Z,99031
2018-01-01T11:33:14.831Z,99027
2018-01-01T11:35:44.719Z,99047
2018-01-01T11:38:14.591Z,99042
2018-01-01T11:40:44.570Z,99038
2018-01-01T11:43:14.456Z,99034
2018-01-01T11:45:44.394Z,99021
2018-01-01T11:48:14.274Z,99029
2018-01-01T11:50:44.176Z,99038
2018-01-01T11:53:15.596Z,99024
2018-01-01T11:55:45.501Z,99020
2018-01-01T11:58:15.412Z,99039
2018-01-01T12:00:45.353Z,99025
2018-01-01T12:03:15.322Z,99034
2018-01-01T12:05:45.241Z,99031
2018-01-01T12:08:15.169Z,99031
2018-01-01T12:10:45.132Z,99040
2018-01-01T12:13:15.051Z,99048
2018-01-01T12:15:46.831Z,99043
2018-01-01T12:18:16.799Z,99049
2018-01-01T12:20:46.727Z,99061
2018-01-01T12:23:16.643Z,99051
2018-01-01T12:25:46.621Z,99043
2018-01-01T12:28:16.568Z,99048
2018-01-01T12:30:46.513Z,99055
2018-01-01T12:33:16.503Z,99055
2018-01-01T12:35:47.167Z,99044
2018-01-01T12:38:17.052Z,99032
2018-01-01T12:40:47.936Z,99022
2018-01-01T12:43:17.949Z,99015
2018-01-01T12:45:47.847Z,99004
2018-01-01T12:48:17.720Z,98993
2018-01-01T12:50:47.605Z,98982
2018-01-01T12:53:17.531Z,98986
2018-01-01T12:55:47.450Z,98933
2018-01-01T12:58:18.081Z,99011
2018-01-01T13:00:47.954Z,98996
2018-01-01T13:03:17.969Z,98986
2018-01-01T13:05:47.866Z,98986
2018-01-01T13:08:17.783Z,98980
2018-01-01T13:10:47.694Z,98975
2018-01-01T13:13:17.606Z,98986
2018-01-01T13:15:47.537Z,98974
2018-01-01T13:18:17.456Z,98974
2018-01-01T13:20:48.167Z,98979
2018-01-01T13:23:18.444Z,98990
2018-01-01T13:25:48.957Z,98967
2018-01-01T13:28:19.130Z,98987
2018-01-01T13:30:49.034Z,98983
2018-01-01T13:33:18.953Z,98981
2018-01-01T13:35:49.083Z,98981
2018-01-01T13:38:18.950Z,98978
2018-01-01T13:40:48.846Z,98989
2018-01-01T13:43:18.741Z,98972
2018-01-01T13:45:48.664Z,98974
2018-01-01T13:48:18.592Z,98985
2018-01-01T13:50:48.486Z,98983
2018-01-01T13:53:18.678Z,98979
2018-01-01T13:55:48.700Z,98983
2018-01-01T13:58:18.598Z,98975
2018-01-01T14:00:48.471Z,98978
2018-01-01T14:03:18.418Z,98998
2018-01-01T14:05:48.315Z,98976
2018-01-01T14:08:18.362Z,98975
2018-01-01T14:10:48.248Z,98968
2018-01-01T14:13:18.192Z,98977
2018-01-01T14:15:48.446Z,98974
2018-01-01T14:18:19.489Z,98971
2018-01-01T14:20:49.420Z,98984
2018-01-01T14:23:19.454Z,98843
2018-01-01T14:25:49.361Z,98989
2018-01-01T14:28:19.292Z,98978
2018-01-01T14:30:49.209Z,98978
2018-01-01T14:33:19.099Z,98977
2018-01-01T14:35:48.983Z,98980
2018-01-01T14:38:18.926Z,98972
2018-01-01T14:40:48.821Z,98979
2018-01-01T14:43:18.846Z,98980
2018-01-01T14:45:48.815Z,98982
2018-01-01T14:48:18.723Z,98981
2018-01-01T14:50:48.675Z,98979
2018-01-01T14:53:18.624Z,98985
2018-01-01T14:55:48.535Z,98984
2018-01-01T14:58:18.444Z,98980
2018-01-01T15:00:48.386Z,98985
2018-01-01T15:03:18.436Z,98978
2018-01-01T15:05:48.325Z,98991
2018-01-01T15:08:18.202Z,98973
2018-01-01T15:10:48.211Z,98980
2018-01-01T15:13:18.104Z,98984
2018-01-01T15:15:48.070Z,98985
2018-01-01T15:18:17.978Z,98978
2018-01-01T15:20:47.958Z,98979
2018-01-01T15:23:17.904Z,98980
2018-01-01T15:25:47.963Z,98978
2018-01-01T15:28:17.864Z,98979
2018-01-01T15:30:47.774Z,98979
2018-01-01T15:33:17.819Z,98972
2018-01-01T15:35:47.727Z,98980
2018-01-01T15:38:17.667Z,98980
2018-01-01T15:40:47.796Z,98976
2018-01-01T15:43:18.715Z,98975
2018-01-01T15:45:48.732Z,98979
2018-01-01T15:48:18.690Z,98988
2018-01-01T15:50:48.657Z,98987
2018-01-01T15:53:25.885Z,98986
2018-01-01T15:55:55.840Z,98982
2018-01-01T15:58:25.793Z,98993
2018-01-01T16:00:55.722Z,98996
2018-01-01T16:03:25.708Z,99006
2018-01-01T16:05:55.620Z,98996
2018-01-01T16:08:25.542Z,98999
2018-01-01T16:10:55.575Z,98988
2018-01-01T16:13:25.480Z,98982
2018-01-01T16:15:55.386Z,99000
2018-01-01T16:18:25.374Z,98995
2018-01-01T16:20:55.411Z,98990
2018-01-01T16:23:26.281Z,98983
2018-01-01T16:25:56.418Z,98980
2018-01-01T16:28:26.357Z,98984
2018-01-01T16:30:56.221Z,98973
2018-01-01T16:33:26.240Z,98974
2018-01-01T16:35:56.116Z,98967
2018-01-01T16:38:26.207Z,98970
2018-01-01T16:40:56.353Z,98962
2018-01-01T16:43:26.327Z,98968
2018-01-01T16:45:56.300Z,98970
2018-01-01T16:48:26.404Z,98973
2018-01-01T16:50:56.368Z,98976
2018-01-01T16:53:26.407Z,98976
2018-01-01T16:55:56.905Z,98981
2018-01-01T16:58:26.958Z,98963
2018-01-01T17:00:56.850Z,98990
2018-01-01T17:03:26.829Z,98985
2018-01-01T17:05:56.838Z,98986
2018-01-01T17:08:26.836Z,98980
2018-01-01T17:10:56.744Z,98981
2018-01-01T17:13:26.631Z,98984
2018-01-01T17:15:56.534Z,98983
2018-01-01T17:18:26.457Z,98979
2018-01-01T17:20:56.378Z,98973
2018-01-01T17:23:26.264Z,98977
2018-01-01T17:25:56.234Z,98978
2018-01-01T17:28:26.215Z,98978
2018-01-01T17:30:56.189Z,98980
2018-01-01T17:33:26.126Z,98984
2018-01-01T17:35:56.082Z,98982
2018-01-01T17:38:25.933Z,98990
2018-01-01T17:40:55.827Z,98997
2018-01-01T17:43:25.742Z,98988
2018-01-01T17:45:55.653Z,98985
2018-01-01T17:48:25.564Z,98986
2018-01-01T17:50:55.490Z,98994
2018-01-01T17:53:25.410Z,99006
2018-01-01T17:55:55.630Z,99004
2018-01-01T17:58:25.546Z,99015
2018-01-01T18:00:55.378Z,99021
2018-01-01T18:03:25.309Z,99020
2018-01-01T18:05:55.323Z,99016
2018-01-01T18:08:25.270Z,99014
2018-01-01T18:10:55.163Z,99024
2018-01-01T18:13:25.276Z,99028
2018-01-01T18:15:55.168Z,99028
2018-01-01T18:18:25.178Z,99027
2018-01-01T18:20:55.025Z,99023
2018-01-01T18:23:24.998Z,99033
2018-01-01T18:25:54.881Z,99038
2018-01-01T18:28:24.830Z,99047
2018-01-01T18:30:54.778Z,99037
2018-01-01T18:33:24.674Z,99036
2018-01-01T18:35:54.579Z,99037
2018-01-01T18:38:24.484Z,99040
2018-01-01T18:40:54.406Z,99040
2018-01-01T18:43:24.310Z,99026
2018-01-01T18:45:54.266Z,99024
2018-01-01T18:48:24.213Z,99024
2018-01-01T18:50:54.143Z,99021
2018-01-01T18:53:24.042Z,99023
2018-01-01T18:55:54.135Z,99025
2018-01-01T18:58:24.108Z,99034
2018-01-01T19:00:54.188Z,99026
2018-01-01T19:03:24.076Z,99037
2018-01-01T19:05:54.001Z,99038
2018-01-01T19:08:23.939Z,99037
2018-01-01T19:10:53.991Z,99035
2018-01-01T19:13:23.947Z,99038
2018-01-01T19:15:53.981Z,99034
2018-01-01T19:18:23.909Z,99027
2018-01-01T19:20:54.721Z,99018
2018-01-01T19:23:24.612Z,99022
2018-01-01T19:25:54.654Z,99025
2018-01-01T19:28:24.644Z,99030
2018-01-01T19:30:54.546Z,99031
2018-01-01T19:33:24.452Z,99022
2018-01-01T19:35:54.342Z,99028
2018-01-01T19:38:24.328Z,99030
2018-01-01T19:40:54.227Z,99028
2018-01-01T19:43:24.183Z,99023
2018-01-01T19:45:54.218Z,99024
2018-01-01T19:48:24.164Z,99021
2018-01-01T19:50:54.119Z,99024
2018-01-01T19:53:24.062Z,99030
2018-01-01T19:55:53.989Z,99024
2018-01-01T19:58:25.648Z,99031
2018-01-01T20:00:55.643Z,99031
2018-01-01T20:03:25.611Z,99026
2018-01-01T20:05:55.554Z,99025
2018-01-01T20:08:25.451Z,99032
2018-01-01T20:10:55.407Z,99025
2018-01-01T20:13:25.307Z,99031
2018-01-01T20:15:55.255Z,99034
2018-01-01T20:18:25.271Z,99027
2018-01-01T20:20:55.199Z,99029
2018-01-01T20:23:25.128Z,99029
2018-01-01T20:25:55.357Z,99022
2018-01-01T20:28:25.320Z,99020
2018-01-01T20:30:58.490Z,99028
2018-01-01T20:33:28.483Z,99027
2018-01-01T20:35:58.529Z,99034
2018-01-01T20:38:28.499Z,99033
2018-01-01T20:40:58.423Z,99037
2018-01-01T20:43:28.383Z,99043
2018-01-01T20:45:58.342Z,99040
2018-01-01T20:48:28.326Z,99037
2018-01-01T20:50:58.258Z,99027
2018-01-01T20:53:28.263Z,99032
2018-01-01T20:55:58.213Z,99019
2018-01-01T20:58:28.173Z,99029
2018-01-01T21:00:58.083Z,99028
2018-01-01T21:03:28.020Z,99013
2018-01-01T21:05:58.119Z,99031
2018-01-01T21:08:28.080Z,99026
2018-01-01T21:10:57.979Z,99016
2018-01-01T21:13:27.920Z,99023
2018-01-01T21:15:58.007Z,99041
2018-01-01T21:18:27.939Z,99040
2018-01-01T21:20:57.858Z,99050
2018-01-01T21:23:27.906Z,99047
2018-01-01T21:25:57.831Z,99054
2018-01-01T21:28:27.871Z,99062
2018-01-01T21:30:57.777Z,99057
2018-01-01T21:33:27.749Z,99065
2018-01-01T21:35:57.734Z,99063
2018-01-01T21:38:27.648Z,99069
2018-01-01T21:40:57.577Z,99064
2018-01-01T21:43:27.589Z,99067
2018-01-01T21:45:57.637Z,99076
2018-01-01T21:48:27.535Z,99076
2018-01-01T21:50:57.502Z,99074
2018-01-01T21:53:27.437Z,99083
2018-01-01T21:55:57.447Z,99084
2018-01-01T21:58:27.504Z,99077
2018-01-01T22:00:57.451Z,99081
2018-01-01T22:03:27.374Z,99077
2018-01-01T22:05:57.384Z,99090
2018-01-01T22:08:27.372Z,99089
2018-01-01T22:10:57.310Z,99094
2018-01-01T22:13:27.199Z,99097
2018-01-01T22:15:57.141Z,99087
2018-01-01T22:18:27.307Z,99089
2018-01-01T22:20:57.211Z,99084
2018-01-01T22:23:27.105Z,99102
2018-01-01T22:25:57.014Z,99102
2018-01-01T22:28:27.190Z,99099
2018-01-01T22:30:57.148Z,99075
2018-01-01T22:33:27.070Z,99099
2018-01-01T22:35:59.975Z,99092
2018-01-01T22:38:31.195Z,99102
2018-01-01T22:41:01.114Z,99103
2018-01-01T22:43:31.037Z,99114
2018-01-01T22:46:00.972Z,99110
2018-01-01T22:48:30.875Z,99121
2018-01-01T22:51:00.790Z,99123
2018-01-01T22:53:30.838Z,99127
2018-01-01T22:56:00.756Z,99132
2018-01-01T22:58:30.715Z,99136
2018-01-01T23:01:00.613Z,99139
2018-01-01T23:03:30.624Z,99131
2018-01-01T23:06:00.550Z,99135
2018-01-01T23:08:30.477Z,99130
2018-01-01T23:11:01.205Z,99124
2018-01-01T23:13:31.148Z,99098
2018-01-01T23:16:01.045Z,99121
2018-01-01T23:18:30.956Z,99124
2018-01-01T23:21:00.838Z,99128
2018-01-01T23:23:30.799Z,99129
2018-01-01T23:26:00.838Z,99134
2018-01-01T23:28:30.765Z,99141
2018-01-01T23:31:00.728Z,99134
2018-01-01T23:33:30.841Z,99134
2018-01-01T23:36:00.884Z,99134
2018-01-01T23:38:31.007Z,99140
2018-01-01T23:41:00.920Z,99148
2018-01-01T23:43:30.813Z,99121
2018-01-01T23:46:01.788Z,99158
2018-01-01T23:48:31.666Z,99151
2018-01-01T23:51:01.609Z,99148
2018-01-01T23:53:31.549Z,99150
2018-01-01T23:56:01.477Z,99142
2018-01-01T23:58:31.368Z,99148
